Ester, AK

3:05 PM AKDT on August 24, 2016 (GMT -0800)
EsterOldRidgeTrl | | Change Station

Elev 1200 ft 64.83 °N, 148.18 °W | Updated 4 minutes ago

Overcast
Overcast
64.0 °F
Feels Like 64.0 °F
N
0.0
Wind Variable Wind from ESE

Today
High -- | Low -- °F
--% Chance of Precip.
Yesterday
High -- | Low -- °F
Precip. -- in
Pressure 30.18 in
Visibility 10.0 miles
Clouds Few 5500 ft
Mostly Cloudy 10000 ft
Mostly Cloudy 12000 ft
Overcast 18000 ft
Dew Point 54 °F
Humidity 70%
Rainfall 0.00 in
Snow Depth Not available.
6:09 AM 9:38 PM
Waning Gibbous, 52% visible
METAR PAFA 242253Z 07003KT 10SM FEW055 BKN100 BKN120 OVC180 21/11 A3017 RMK AO2 SLP219 ACSL DSNT NW T02060111 PNO $
Pressure 30.18 in
Visibility 10.0 miles
Clouds Few 5500 ft
Mostly Cloudy 10000 ft
Mostly Cloudy 12000 ft
Overcast 18000 ft
Dew Point 54 °F
Humidity 70%
Rainfall 0.00 in
Snow Depth Not available.
6:09 AM 9:38 PM
Waning Gibbous, 52% visible
METAR PAFA 242253Z 07003KT 10SM FEW055 BKN100 BKN120 OVC180 21/11 A3017 RMK AO2 SLP219 ACSL DSNT NW T02060111 PNO $

10-Day Weather Forecast

Almanac

Astronomy

Aug. 24, 2016 Rise Set
Actual Time
Civil Twilight
Nautical Twilight
Astronomical Twilight
Moon
Length of Visible Light
Length of Day
Tomorrow will be .
, % of the Moon is Illuminated

Today's Extremes

State Highs State Lows

Community

WunderPhotos

Upload Photos

1,934,730 photos uploaded!

WunderBlog® & News

Nearby

Air Quality

  Air Quality AQ Index Pollutant
Not available.

Snow Depth

Station Depth Elevation

Earthquake Activity

City Distance Mag. Time & Date
Minimum magnitude displayed is 2.5.

Coastal Water Temperatures

Place Temperature

Stations

Nearby Weather Stations

Station Location Temp. Windchill Dew Point Humidity Wind Precip. Elev Updated Type
                   

Watches & Warnings

There are currently no watches in effect.